sensor_id;sensor_type;location;lat;lon;timestamp;temperature;humidity
4187;DHT22;2107;52.306;10.484;2023-05-07T00:01:18;9.00;99.90
4187;DHT22;2107;52.306;10.484;2023-05-07T00:03:44;9.10;99.90
4187;DHT22;2107;52.306;10.484;2023-05-07T00:06:11;9.10;99.90
4187;DHT22;2107;52.306;10.484;2023-05-07T00:08:38;9.10;99.90
4187;DHT22;2107;52.306;10.484;2023-05-07T00:11:05;9.20;99.90
4187;DHT22;2107;52.306;10.484;2023-05-07T00:13:32;9.20;99.90
4187;DHT22;2107;52.306;10.484;2023-05-07T00:16:02;9.10;99.90
4187;DHT22;2107;52.306;10.484;2023-05-07T00:18:29;9.10;99.90
4187;DHT22;2107;52.306;10.484;2023-05-07T00:20:56;9.10;99.90
4187;DHT22;2107;52.306;10.484;2023-05-07T00:23:23;9.10;99.90
4187;DHT22;2107;52.306;10.484;2023-05-07T00:25:49;9.10;99.90
4187;DHT22;2107;52.306;10.484;2023-05-07T00:28:16;9.10;99.90
4187;DHT22;2107;52.306;10.484;2023-05-07T00:30:43;9.10;99.90
4187;DHT22;2107;52.306;10.484;2023-05-07T00:33:11;9.10;99.90
4187;DHT22;2107;52.306;10.484;2023-05-07T00:35:38;9.20;99.90
4187;DHT22;2107;52.306;10.484;2023-05-07T00:38:05;9.10;99.90
4187;DHT22;2107;52.306;10.484;2023-05-07T00:40:32;9.10;99.90
4187;DHT22;2107;52.306;10.484;2023-05-07T00:42:59;9.10;99.90
4187;DHT22;2107;52.306;10.484;2023-05-07T00:45:27;9.10;99.90
4187;DHT22;2107;52.306;10.484;2023-05-07T00:47:54;9.20;99.90
4187;DHT22;2107;52.306;10.484;2023-05-07T00:50:23;9.20;99.90
4187;DHT22;2107;52.306;10.484;2023-05-07T00:52:50;9.10;99.90
4187;DHT22;2107;52.306;10.484;2023-05-07T00:55:17;9.10;99.90
4187;DHT22;2107;52.306;10.484;2023-05-07T00:57:44;9.10;99.90
4187;DHT22;2107;52.306;10.484;2023-05-07T01:00:12;9.10;99.90
4187;DHT22;2107;52.306;10.484;2023-05-07T01:02:39;9.10;99.90
4187;DHT22;2107;52.306;10.484;2023-05-07T01:05:09;9.00;99.90
4187;DHT22;2107;52.306;10.484;2023-05-07T01:07:38;9.20;99.90
4187;DHT22;2107;52.306;10.484;2023-05-07T01:10:07;9.20;99.90
4187;DHT22;2107;52.306;10.484;2023-05-07T01:12:35;9.20;99.90
4187;DHT22;2107;52.306;10.484;2023-05-07T01:15:04;9.10;99.90
4187;DHT22;2107;52.306;10.484;2023-05-07T01:17:33;9.10;99.90
4187;DHT22;2107;52.306;10.484;2023-05-07T01:20:01;9.10;99.90
4187;DHT22;2107;52.306;10.484;2023-05-07T01:22:32;9.10;99.90
4187;DHT22;2107;52.306;10.484;2023-05-07T01:24:59;9.10;99.90
4187;DHT22;2107;52.306;10.484;2023-05-07T01:27:27;9.10;99.90
4187;DHT22;2107;52.306;10.484;2023-05-07T01:29:54;9.10;99.90
4187;DHT22;2107;52.306;10.484;2023-05-07T01:32:25;9.00;99.90
4187;DHT22;2107;52.306;10.484;2023-05-07T01:34:54;9.00;99.90
4187;DHT22;2107;52.306;10.484;2023-05-07T01:37:22;9.10;99.90
4187;DHT22;2107;52.306;10.484;2023-05-07T01:39:52;9.00;99.90
4187;DHT22;2107;52.306;10.484;2023-05-07T01:42:20;9.00;99.90
4187;DHT22;2107;52.306;10.484;2023-05-07T01:44:48;8.90;99.90
4187;DHT22;2107;52.306;10.484;2023-05-07T01:47:14;9.00;99.90
4187;DHT22;2107;52.306;10.484;2023-05-07T01:49:42;9.00;99.90
4187;DHT22;2107;52.306;10.484;2023-05-07T01:52:10;9.00;99.90
4187;DHT22;2107;52.306;10.484;2023-05-07T01:54:37;8.90;99.90
4187;DHT22;2107;52.306;10.484;2023-05-07T01:57:05;8.90;99.90
4187;DHT22;2107;52.306;10.484;2023-05-07T01:59:32;8.90;99.90
4187;DHT22;2107;52.306;10.484;2023-05-07T02:01:59;8.90;99.90
4187;DHT22;2107;52.306;10.484;2023-05-07T02:04:26;8.90;99.90
4187;DHT22;2107;52.306;10.484;2023-05-07T02:06:52;9.00;99.90
4187;DHT22;2107;52.306;10.484;2023-05-07T02:09:19;8.90;99.90
4187;DHT22;2107;52.306;10.484;2023-05-07T02:11:46;9.00;99.90
4187;DHT22;2107;52.306;10.484;2023-05-07T02:14:14;9.00;99.90
4187;DHT22;2107;52.306;10.484;2023-05-07T02:16:41;8.90;99.90
4187;DHT22;2107;52.306;10.484;2023-05-07T02:19:08;9.00;99.90
4187;DHT22;2107;52.306;10.484;2023-05-07T02:21:35;9.00;99.90
4187;DHT22;2107;52.306;10.484;2023-05-07T02:24:02;8.90;99.90
4187;DHT22;2107;52.306;10.484;2023-05-07T02:26:29;9.00;99.90
4187;DHT22;2107;52.306;10.484;2023-05-07T02:28:56;8.90;99.90
4187;DHT22;2107;52.306;10.484;2023-05-07T02:31:24;8.90;99.90
4187;DHT22;2107;52.306;10.484;2023-05-07T02:33:51;8.90;99.90
4187;DHT22;2107;52.306;10.484;2023-05-07T02:36:17;8.90;99.90
4187;DHT22;2107;52.306;10.484;2023-05-07T02:38:44;8.90;99.90
4187;DHT22;2107;52.306;10.484;2023-05-07T02:41:11;8.90;99.90
4187;DHT22;2107;52.306;10.484;2023-05-07T02:43:38;8.90;99.90
4187;DHT22;2107;52.306;10.484;2023-05-07T02:46:05;8.90;99.90
4187;DHT22;2107;52.306;10.484;2023-05-07T02:48:34;8.80;99.90
4187;DHT22;2107;52.306;10.484;2023-05-07T02:51:01;8.80;99.90
4187;DHT22;2107;52.306;10.484;2023-05-07T02:53:28;8.80;99.90
4187;DHT22;2107;52.306;10.484;2023-05-07T02:55:56;8.80;99.90
4187;DHT22;2107;52.306;10.484;2023-05-07T02:58:23;8.80;99.90
4187;DHT22;2107;52.306;10.484;2023-05-07T03:00:51;8.80;99.90
4187;DHT22;2107;52.306;10.484;2023-05-07T03:03:18;8.80;99.90
4187;DHT22;2107;52.306;10.484;2023-05-07T03:05:46;8.80;99.90
4187;DHT22;2107;52.306;10.484;2023-05-07T03:08:13;8.70;99.90
4187;DHT22;2107;52.306;10.484;2023-05-07T03:10:39;8.70;99.90
4187;DHT22;2107;52.306;10.484;2023-05-07T03:13:06;8.60;99.90
4187;DHT22;2107;52.306;10.484;2023-05-07T03:15:33;8.70;99.90
4187;DHT22;2107;52.306;10.484;2023-05-07T03:18:00;8.70;99.90
4187;DHT22;2107;52.306;10.484;2023-05-07T03:20:27;8.70;99.90
4187;DHT22;2107;52.306;10.484;2023-05-07T03:22:55;8.70;99.90
4187;DHT22;2107;52.306;10.484;2023-05-07T03:25:22;8.70;99.90
4187;DHT22;2107;52.306;10.484;2023-05-07T03:27:49;8.60;99.90
4187;DHT22;2107;52.306;10.484;2023-05-07T03:30:15;8.70;99.90
4187;DHT22;2107;52.306;10.484;2023-05-07T03:32:42;8.70;99.90
4187;DHT22;2107;52.306;10.484;2023-05-07T03:35:09;8.70;99.90
4187;DHT22;2107;52.306;10.484;2023-05-07T03:37:37;8.60;99.90
4187;DHT22;2107;52.306;10.484;2023-05-07T03:40:06;8.60;99.90
4187;DHT22;2107;52.306;10.484;2023-05-07T03:42:35;8.60;99.90
4187;DHT22;2107;52.306;10.484;2023-05-07T03:45:04;8.60;99.90
4187;DHT22;2107;52.306;10.484;2023-05-07T03:47:31;8.60;99.90
4187;DHT22;2107;52.306;10.484;2023-05-07T03:49:58;8.60;99.90
4187;DHT22;2107;52.306;10.484;2023-05-07T03:52:25;8.50;99.90
4187;DHT22;2107;52.306;10.484;2023-05-07T03:54:52;8.60;99.90
4187;DHT22;2107;52.306;10.484;2023-05-07T03:57:20;8.60;99.90
4187;DHT22;2107;52.306;10.484;2023-05-07T03:59:47;8.50;99.90
4187;DHT22;2107;52.306;10.484;2023-05-07T04:02:14;8.50;99.90
4187;DHT22;2107;52.306;10.484;2023-05-07T04:04:41;8.50;99.90
4187;DHT22;2107;52.306;10.484;2023-05-07T04:07:08;8.60;99.90
4187;DHT22;2107;52.306;10.484;2023-05-07T04:09:35;8.60;99.90
4187;DHT22;2107;52.306;10.484;2023-05-07T04:12:02;8.60;99.90
4187;DHT22;2107;52.306;10.484;2023-05-07T04:14:30;8.50;99.90
4187;DHT22;2107;52.306;10.484;2023-05-07T04:16:58;8.60;99.90
4187;DHT22;2107;52.306;10.484;2023-05-07T04:19:25;8.60;99.90
4187;DHT22;2107;52.306;10.484;2023-05-07T04:21:52;8.60;99.90
4187;DHT22;2107;52.306;10.484;2023-05-07T04:24:19;8.60;99.90
4187;DHT22;2107;52.306;10.484;2023-05-07T04:26:45;8.60;99.90
4187;DHT22;2107;52.306;10.484;2023-05-07T04:29:12;8.60;99.90
4187;DHT22;2107;52.306;10.484;2023-05-07T04:31:40;8.60;99.90
4187;DHT22;2107;52.306;10.484;2023-05-07T04:34:09;8.70;99.90
4187;DHT22;2107;52.306;10.484;2023-05-07T04:36:37;8.70;99.90
4187;DHT22;2107;52.306;10.484;2023-05-07T04:39:04;8.70;99.90
4187;DHT22;2107;52.306;10.484;2023-05-07T04:41:32;8.70;99.90
4187;DHT22;2107;52.306;10.484;2023-05-07T04:43:58;8.80;99.90
4187;DHT22;2107;52.306;10.484;2023-05-07T04:46:25;8.90;99.90
4187;DHT22;2107;52.306;10.484;2023-05-07T04:48:53;8.80;99.90
4187;DHT22;2107;52.306;10.484;2023-05-07T04:51:20;8.80;99.90
4187;DHT22;2107;52.306;10.484;2023-05-07T04:53:48;8.80;99.90
4187;DHT22;2107;52.306;10.484;2023-05-07T04:56:15;8.80;99.90
4187;DHT22;2107;52.306;10.484;2023-05-07T04:58:41;8.80;99.90
4187;DHT22;2107;52.306;10.484;2023-05-07T05:01:08;8.80;99.90
4187;DHT22;2107;52.306;10.484;2023-05-07T05:03:36;8.70;99.90
4187;DHT22;2107;52.306;10.484;2023-05-07T05:06:04;8.90;99.90
4187;DHT22;2107;52.306;10.484;2023-05-07T05:08:31;8.90;99.90
4187;DHT22;2107;52.306;10.484;2023-05-07T05:10:58;8.80;99.90
4187;DHT22;2107;52.306;10.484;2023-05-07T05:13:25;8.80;99.90
4187;DHT22;2107;52.306;10.484;2023-05-07T05:15:52;9.00;99.90
4187;DHT22;2107;52.306;10.484;2023-05-07T05:18:18;9.10;99.90
4187;DHT22;2107;52.306;10.484;2023-05-07T05:20:45;9.10;99.90
4187;DHT22;2107;52.306;10.484;2023-05-07T05:23:14;9.30;99.90
4187;DHT22;2107;52.306;10.484;2023-05-07T05:25:40;9.30;99.90
4187;DHT22;2107;52.306;10.484;2023-05-07T05:28:07;9.30;99.90
4187;DHT22;2107;52.306;10.484;2023-05-07T05:30:34;9.20;99.90
4187;DHT22;2107;52.306;10.484;2023-05-07T05:33:01;9.10;99.90
4187;DHT22;2107;52.306;10.484;2023-05-07T05:35:29;9.10;99.90
4187;DHT22;2107;52.306;10.484;2023-05-07T05:37:56;9.20;99.90
4187;DHT22;2107;52.306;10.484;2023-05-07T05:40:24;9.10;99.90
4187;DHT22;2107;52.306;10.484;2023-05-07T05:42:51;9.20;99.90
4187;DHT22;2107;52.306;10.484;2023-05-07T05:45:18;9.20;99.90
4187;DHT22;2107;52.306;10.484;2023-05-07T05:47:44;9.00;99.90
4187;DHT22;2107;52.306;10.484;2023-05-07T05:50:11;9.10;99.90
4187;DHT22;2107;52.306;10.484;2023-05-07T05:52:38;9.10;99.90
4187;DHT22;2107;52.306;10.484;2023-05-07T05:55:07;9.00;99.90
4187;DHT22;2107;52.306;10.484;2023-05-07T05:57:35;8.90;99.90
4187;DHT22;2107;52.306;10.484;2023-05-07T06:00:02;8.90;99.90
4187;DHT22;2107;52.306;10.484;2023-05-07T06:02:30;8.90;99.90
4187;DHT22;2107;52.306;10.484;2023-05-07T06:04:57;9.00;99.90
4187;DHT22;2107;52.306;10.484;2023-05-07T06:07:24;9.10;99.90
4187;DHT22;2107;52.306;10.484;2023-05-07T06:09:51;9.30;99.90
4187;DHT22;2107;52.306;10.484;2023-05-07T06:12:18;9.20;99.90
4187;DHT22;2107;52.306;10.484;2023-05-07T06:14:46;9.20;99.90
4187;DHT22;2107;52.306;10.484;2023-05-07T06:17:13;9.30;99.90
4187;DHT22;2107;52.306;10.484;2023-05-07T06:19:40;9.50;99.90
4187;DHT22;2107;52.306;10.484;2023-05-07T06:22:07;9.50;99.90
4187;DHT22;2107;52.306;10.484;2023-05-07T06:24:34;9.40;99.90
4187;DHT22;2107;52.306;10.484;2023-05-07T06:27:01;9.60;99.90
4187;DHT22;2107;52.306;10.484;2023-05-07T06:29:27;9.60;99.90
4187;DHT22;2107;52.306;10.484;2023-05-07T06:32:06;9.50;99.90
4187;DHT22;2107;52.306;10.484;2023-05-07T06:34:33;9.70;99.90
4187;DHT22;2107;52.306;10.484;2023-05-07T06:37:00;10.00;99.90
4187;DHT22;2107;52.306;10.484;2023-05-07T06:39:26;10.20;99.90
4187;DHT22;2107;52.306;10.484;2023-05-07T06:41:53;10.30;99.90
4187;DHT22;2107;52.306;10.484;2023-05-07T06:44:20;9.80;99.90
4187;DHT22;2107;52.306;10.484;2023-05-07T06:46:47;9.90;99.90
4187;DHT22;2107;52.306;10.484;2023-05-07T06:49:15;9.60;99.90
4187;DHT22;2107;52.306;10.484;2023-05-07T06:51:42;9.50;99.90
4187;DHT22;2107;52.306;10.484;2023-05-07T06:54:09;9.80;99.90
4187;DHT22;2107;52.306;10.484;2023-05-07T06:56:36;9.80;99.90
4187;DHT22;2107;52.306;10.484;2023-05-07T06:59:03;9.60;99.90
4187;DHT22;2107;52.306;10.484;2023-05-07T07:01:29;9.60;99.90
4187;DHT22;2107;52.306;10.484;2023-05-07T07:03:56;9.70;99.90
4187;DHT22;2107;52.306;10.484;2023-05-07T07:06:24;10.10;99.90
4187;DHT22;2107;52.306;10.484;2023-05-07T07:08:52;10.50;99.90
4187;DHT22;2107;52.306;10.484;2023-05-07T07:11:19;10.50;99.90
4187;DHT22;2107;52.306;10.484;2023-05-07T07:13:46;10.20;99.90
4187;DHT22;2107;52.306;10.484;2023-05-07T07:16:14;10.50;99.90
4187;DHT22;2107;52.306;10.484;2023-05-07T07:18:43;10.60;99.90
4187;DHT22;2107;52.306;10.484;2023-05-07T07:21:10;9.90;99.90
4187;DHT22;2107;52.306;10.484;2023-05-07T07:23:38;9.70;99.90
4187;DHT22;2107;52.306;10.484;2023-05-07T07:26:05;9.90;99.90
4187;DHT22;2107;52.306;10.484;2023-05-07T07:28:32;10.10;99.90
4187;DHT22;2107;52.306;10.484;2023-05-07T07:30:59;10.30;99.90
4187;DHT22;2107;52.306;10.484;2023-05-07T07:33:26;10.40;99.90
4187;DHT22;2107;52.306;10.484;2023-05-07T07:35:53;10.30;99.90
4187;DHT22;2107;52.306;10.484;2023-05-07T07:38:20;10.00;99.90
4187;DHT22;2107;52.306;10.484;2023-05-07T07:40:49;10.10;99.90
4187;DHT22;2107;52.306;10.484;2023-05-07T07:43:15;10.30;99.90
4187;DHT22;2107;52.306;10.484;2023-05-07T07:45:42;10.20;99.90
4187;DHT22;2107;52.306;10.484;2023-05-07T07:48:09;10.00;99.90
4187;DHT22;2107;52.306;10.484;2023-05-07T07:50:36;10.00;99.90
4187;DHT22;2107;52.306;10.484;2023-05-07T07:53:03;10.10;99.90
4187;DHT22;2107;52.306;10.484;2023-05-07T07:55:30;9.90;99.90
4187;DHT22;2107;52.306;10.484;2023-05-07T07:57:59;9.90;99.90
4187;DHT22;2107;52.306;10.484;2023-05-07T08:00:25;10.10;99.90
4187;DHT22;2107;52.306;10.484;2023-05-07T08:02:52;10.10;99.90
4187;DHT22;2107;52.306;10.484;2023-05-07T08:05:19;10.30;99.90
4187;DHT22;2107;52.306;10.484;2023-05-07T08:07:46;10.50;99.90
4187;DHT22;2107;52.306;10.484;2023-05-07T08:10:17;10.30;99.90
4187;DHT22;2107;52.306;10.484;2023-05-07T08:12:46;10.40;99.90
4187;DHT22;2107;52.306;10.484;2023-05-07T08:15:15;10.50;99.90
4187;DHT22;2107;52.306;10.484;2023-05-07T08:17:43;10.40;99.90
4187;DHT22;2107;52.306;10.484;2023-05-07T08:20:10;10.40;99.90
4187;DHT22;2107;52.306;10.484;2023-05-07T08:22:37;10.70;99.90
4187;DHT22;2107;52.306;10.484;2023-05-07T08:25:04;10.30;99.90
4187;DHT22;2107;52.306;10.484;2023-05-07T08:27:31;10.30;99.90
4187;DHT22;2107;52.306;10.484;2023-05-07T08:29:58;10.90;99.90
4187;DHT22;2107;52.306;10.484;2023-05-07T08:32:26;11.20;99.90
4187;DHT22;2107;52.306;10.484;2023-05-07T08:34:53;11.00;99.90
4187;DHT22;2107;52.306;10.484;2023-05-07T08:37:20;10.80;99.90
4187;DHT22;2107;52.306;10.484;2023-05-07T08:39:47;10.90;99.90
4187;DHT22;2107;52.306;10.484;2023-05-07T08:42:16;10.70;99.90
4187;DHT22;2107;52.306;10.484;2023-05-07T08:44:45;11.00;99.90
4187;DHT22;2107;52.306;10.484;2023-05-07T08:47:12;11.10;99.90
4187;DHT22;2107;52.306;10.484;2023-05-07T08:49:41;11.00;99.90
4187;DHT22;2107;52.306;10.484;2023-05-07T08:52:08;11.20;99.90
4187;DHT22;2107;52.306;10.484;2023-05-07T08:54:37;11.40;99.90
4187;DHT22;2107;52.306;10.484;2023-05-07T08:57:04;10.60;99.90
4187;DHT22;2107;52.306;10.484;2023-05-07T08:59:31;11.10;99.90
4187;DHT22;2107;52.306;10.484;2023-05-07T09:01:57;10.80;99.90
4187;DHT22;2107;52.306;10.484;2023-05-07T09:04:24;10.70;99.90
4187;DHT22;2107;52.306;10.484;2023-05-07T09:06:52;11.20;99.90
4187;DHT22;2107;52.306;10.484;2023-05-07T09:09:21;11.60;99.90
4187;DHT22;2107;52.306;10.484;2023-05-07T09:11:48;11.70;99.90
4187;DHT22;2107;52.306;10.484;2023-05-07T09:14:16;11.70;99.90
4187;DHT22;2107;52.306;10.484;2023-05-07T09:16:43;11.80;99.90
4187;DHT22;2107;52.306;10.484;2023-05-07T09:19:10;11.80;99.90
4187;DHT22;2107;52.306;10.484;2023-05-07T09:21:37;11.40;99.90
4187;DHT22;2107;52.306;10.484;2023-05-07T09:24:05;12.00;99.90
4187;DHT22;2107;52.306;10.484;2023-05-07T09:26:32;12.00;99.90
4187;DHT22;2107;52.306;10.484;2023-05-07T09:29:00;12.30;99.90
4187;DHT22;2107;52.306;10.484;2023-05-07T09:31:27;12.10;99.90
4187;DHT22;2107;52.306;10.484;2023-05-07T09:33:54;12.10;99.90
4187;DHT22;2107;52.306;10.484;2023-05-07T09:36:21;11.90;99.90
4187;DHT22;2107;52.306;10.484;2023-05-07T09:38:48;11.90;99.90
4187;DHT22;2107;52.306;10.484;2023-05-07T09:41:19;12.20;99.90
4187;DHT22;2107;52.306;10.484;2023-05-07T09:43:47;12.00;99.90
4187;DHT22;2107;52.306;10.484;2023-05-07T09:46:25;11.30;99.90
4187;DHT22;2107;52.306;10.484;2023-05-07T09:48:53;10.80;99.90
4187;DHT22;2107;52.306;10.484;2023-05-07T09:51:28;11.10;99.90
4187;DHT22;2107;52.306;10.484;2023-05-07T09:53:56;11.50;99.90
4187;DHT22;2107;52.306;10.484;2023-05-07T09:56:28;12.10;99.90
4187;DHT22;2107;52.306;10.484;2023-05-07T09:59:00;12.00;99.90
4187;DHT22;2107;52.306;10.484;2023-05-07T10:01:27;12.50;99.90
4187;DHT22;2107;52.306;10.484;2023-05-07T10:03:56;12.80;99.90
4187;DHT22;2107;52.306;10.484;2023-05-07T10:06:24;12.90;99.90
4187;DHT22;2107;52.306;10.484;2023-05-07T10:08:52;13.10;99.90
4187;DHT22;2107;52.306;10.484;2023-05-07T10:11:19;13.10;99.90
4187;DHT22;2107;52.306;10.484;2023-05-07T10:13:48;13.30;99.90
4187;DHT22;2107;52.306;10.484;2023-05-07T10:16:15;12.80;99.90
4187;DHT22;2107;52.306;10.484;2023-05-07T10:18:43;12.90;99.90
4187;DHT22;2107;52.306;10.484;2023-05-07T10:21:14;12.40;99.90
4187;DHT22;2107;52.306;10.484;2023-05-07T10:23:45;12.80;99.90
4187;DHT22;2107;52.306;10.484;2023-05-07T10:26:13;13.20;99.90
4187;DHT22;2107;52.306;10.484;2023-05-07T10:28:46;13.00;99.90
4187;DHT22;2107;52.306;10.484;2023-05-07T10:31:32;13.40;99.90
4187;DHT22;2107;52.306;10.484;2023-05-07T10:34:03;13.20;99.90
4187;DHT22;2107;52.306;10.484;2023-05-07T10:36:34;13.00;99.90
4187;DHT22;2107;52.306;10.484;2023-05-07T10:39:01;12.60;99.90
4187;DHT22;2107;52.306;10.484;2023-05-07T10:41:28;12.90;99.90
4187;DHT22;2107;52.306;10.484;2023-05-07T10:43:55;12.90;99.90
4187;DHT22;2107;52.306;10.484;2023-05-07T10:46:23;12.60;99.90
4187;DHT22;2107;52.306;10.484;2023-05-07T10:49:09;12.30;99.90
4187;DHT22;2107;52.306;10.484;2023-05-07T10:51:38;12.30;99.90
4187;DHT22;2107;52.306;10.484;2023-05-07T10:54:21;12.20;99.90
4187;DHT22;2107;52.306;10.484;2023-05-07T10:56:49;12.30;99.90
4187;DHT22;2107;52.306;10.484;2023-05-07T10:59:36;12.30;99.90
4187;DHT22;2107;52.306;10.484;2023-05-07T11:02:09;12.40;99.90
4187;DHT22;2107;52.306;10.484;2023-05-07T11:04:37;12.80;99.90
4187;DHT22;2107;52.306;10.484;2023-05-07T11:07:25;12.90;99.90
4187;DHT22;2107;52.306;10.484;2023-05-07T11:10:05;13.00;99.90
4187;DHT22;2107;52.306;10.484;2023-05-07T11:12:55;13.00;99.90
4187;DHT22;2107;52.306;10.484;2023-05-07T11:15:39;13.30;99.90
4187;DHT22;2107;52.306;10.484;2023-05-07T11:18:09;13.30;99.90
4187;DHT22;2107;52.306;10.484;2023-05-07T11:20:54;14.40;99.90
4187;DHT22;2107;52.306;10.484;2023-05-07T11:23:57;13.40;99.90
4187;DHT22;2107;52.306;10.484;2023-05-07T11:26:25;12.90;99.90
4187;DHT22;2107;52.306;10.484;2023-05-07T11:28:52;13.10;99.90
4187;DHT22;2107;52.306;10.484;2023-05-07T11:31:22;12.90;99.90
4187;DHT22;2107;52.306;10.484;2023-05-07T11:33:51;12.70;99.90
4187;DHT22;2107;52.306;10.484;2023-05-07T11:36:19;14.10;99.90
4187;DHT22;2107;52.306;10.484;2023-05-07T11:38:46;13.70;99.90
4187;DHT22;2107;52.306;10.484;2023-05-07T11:41:13;14.10;99.90
4187;DHT22;2107;52.306;10.484;2023-05-07T11:43:57;14.40;99.90
4187;DHT22;2107;52.306;10.484;2023-05-07T11:46:24;14.00;99.90
4187;DHT22;2107;52.306;10.484;2023-05-07T11:48:53;13.30;99.90
4187;DHT22;2107;52.306;10.484;2023-05-07T11:51:21;13.40;99.90
4187;DHT22;2107;52.306;10.484;2023-05-07T11:53:49;13.60;99.90
4187;DHT22;2107;52.306;10.484;2023-05-07T11:56:17;13.30;99.90
4187;DHT22;2107;52.306;10.484;2023-05-07T11:58:45;13.20;99.90
4187;DHT22;2107;52.306;10.484;2023-05-07T12:01:14;13.80;99.90
4187;DHT22;2107;52.306;10.484;2023-05-07T12:03:42;13.80;99.90
4187;DHT22;2107;52.306;10.484;2023-05-07T12:06:13;13.00;99.90
4187;DHT22;2107;52.306;10.484;2023-05-07T12:08:41;13.10;99.90
4187;DHT22;2107;52.306;10.484;2023-05-07T12:11:14;13.60;99.90
4187;DHT22;2107;52.306;10.484;2023-05-07T12:13:43;13.50;99.90
4187;DHT22;2107;52.306;10.484;2023-05-07T12:16:10;13.70;99.90
4187;DHT22;2107;52.306;10.484;2023-05-07T12:18:37;13.50;99.90
4187;DHT22;2107;52.306;10.484;2023-05-07T12:21:05;13.30;99.90
4187;DHT22;2107;52.306;10.484;2023-05-07T12:23:35;13.60;99.90
4187;DHT22;2107;52.306;10.484;2023-05-07T12:26:03;12.80;99.90
4187;DHT22;2107;52.306;10.484;2023-05-07T12:28:30;12.90;99.90
4187;DHT22;2107;52.306;10.484;2023-05-07T12:30:57;12.70;99.90
4187;DHT22;2107;52.306;10.484;2023-05-07T12:33:26;12.90;99.90
4187;DHT22;2107;52.306;10.484;2023-05-07T12:35:55;13.00;99.90
4187;DHT22;2107;52.306;10.484;2023-05-07T12:38:22;12.90;99.90
4187;DHT22;2107;52.306;10.484;2023-05-07T12:40:54;12.40;99.90
4187;DHT22;2107;52.306;10.484;2023-05-07T12:43:23;12.50;99.90
4187;DHT22;2107;52.306;10.484;2023-05-07T12:45:53;12.90;99.90
4187;DHT22;2107;52.306;10.484;2023-05-07T12:48:21;13.30;99.90
4187;DHT22;2107;52.306;10.484;2023-05-07T12:50:49;13.20;99.90
4187;DHT22;2107;52.306;10.484;2023-05-07T12:53:17;13.20;99.90
4187;DHT22;2107;52.306;10.484;2023-05-07T12:55:48;13.60;99.90
4187;DHT22;2107;52.306;10.484;2023-05-07T12:58:18;12.90;99.90
4187;DHT22;2107;52.306;10.484;2023-05-07T13:00:48;13.20;99.90
4187;DHT22;2107;52.306;10.484;2023-05-07T13:03:26;13.30;99.90
4187;DHT22;2107;52.306;10.484;2023-05-07T13:05:55;13.10;99.90
4187;DHT22;2107;52.306;10.484;2023-05-07T13:08:26;12.60;99.90
4187;DHT22;2107;52.306;10.484;2023-05-07T13:10:53;12.40;99.90
4187;DHT22;2107;52.306;10.484;2023-05-07T13:13:22;12.60;99.90
4187;DHT22;2107;52.306;10.484;2023-05-07T13:15:49;13.20;99.90
4187;DHT22;2107;52.306;10.484;2023-05-07T13:18:15;13.30;99.90
4187;DHT22;2107;52.306;10.484;2023-05-07T13:20:42;12.70;99.90
4187;DHT22;2107;52.306;10.484;2023-05-07T13:23:09;13.00;99.90
4187;DHT22;2107;52.306;10.484;2023-05-07T13:25:36;12.60;99.90
4187;DHT22;2107;52.306;10.484;2023-05-07T13:28:03;12.60;99.90
4187;DHT22;2107;52.306;10.484;2023-05-07T13:30:31;13.10;99.90
4187;DHT22;2107;52.306;10.484;2023-05-07T13:32:58;12.50;99.90
4187;DHT22;2107;52.306;10.484;2023-05-07T13:35:25;12.80;99.90
4187;DHT22;2107;52.306;10.484;2023-05-07T13:37:52;12.50;99.90
4187;DHT22;2107;52.306;10.484;2023-05-07T13:40:20;13.60;99.90
4187;DHT22;2107;52.306;10.484;2023-05-07T13:42:47;13.30;99.90
4187;DHT22;2107;52.306;10.484;2023-05-07T13:45:14;13.20;99.90
4187;DHT22;2107;52.306;10.484;2023-05-07T13:47:43;12.80;99.90
4187;DHT22;2107;52.306;10.484;2023-05-07T13:50:10;12.90;99.90
4187;DHT22;2107;52.306;10.484;2023-05-07T13:52:39;12.60;99.90
4187;DHT22;2107;52.306;10.484;2023-05-07T13:55:07;13.20;99.90
4187;DHT22;2107;52.306;10.484;2023-05-07T13:57:34;12.80;99.90
4187;DHT22;2107;52.306;10.484;2023-05-07T14:00:01;13.90;99.90
4187;DHT22;2107;52.306;10.484;2023-05-07T14:02:27;14.80;99.90
4187;DHT22;2107;52.306;10.484;2023-05-07T14:04:56;15.10;99.90
4187;DHT22;2107;52.306;10.484;2023-05-07T14:07:23;14.40;99.90
4187;DHT22;2107;52.306;10.484;2023-05-07T14:09:49;14.30;99.90
4187;DHT22;2107;52.306;10.484;2023-05-07T14:12:16;14.30;99.90
4187;DHT22;2107;52.306;10.484;2023-05-07T14:14:43;14.20;99.90
4187;DHT22;2107;52.306;10.484;2023-05-07T14:17:11;13.70;99.90
4187;DHT22;2107;52.306;10.484;2023-05-07T14:19:37;14.40;99.90
4187;DHT22;2107;52.306;10.484;2023-05-07T14:22:06;15.00;99.90
4187;DHT22;2107;52.306;10.484;2023-05-07T14:24:32;14.80;99.90
4187;DHT22;2107;52.306;10.484;2023-05-07T14:26:59;14.40;99.90
4187;DHT22;2107;52.306;10.484;2023-05-07T14:29:27;16.00;99.90
4187;DHT22;2107;52.306;10.484;2023-05-07T14:31:53;15.80;99.90
4187;DHT22;2107;52.306;10.484;2023-05-07T14:34:20;15.50;99.90
4187;DHT22;2107;52.306;10.484;2023-05-07T14:36:47;14.70;99.90
4187;DHT22;2107;52.306;10.484;2023-05-07T14:39:15;14.70;99.90
4187;DHT22;2107;52.306;10.484;2023-05-07T14:41:42;15.10;99.90
4187;DHT22;2107;52.306;10.484;2023-05-07T14:44:09;14.90;99.90
4187;DHT22;2107;52.306;10.484;2023-05-07T14:46:36;14.80;99.90
4187;DHT22;2107;52.306;10.484;2023-05-07T14:49:03;15.70;99.90
4187;DHT22;2107;52.306;10.484;2023-05-07T14:51:30;13.20;99.90
4187;DHT22;2107;52.306;10.484;2023-05-07T14:53:58;13.70;99.90
4187;DHT22;2107;52.306;10.484;2023-05-07T14:56:27;13.60;99.90
4187;DHT22;2107;52.306;10.484;2023-05-07T14:58:54;13.40;99.90
4187;DHT22;2107;52.306;10.484;2023-05-07T15:01:20;14.00;99.90
4187;DHT22;2107;52.306;10.484;2023-05-07T15:03:47;14.00;99.90
4187;DHT22;2107;52.306;10.484;2023-05-07T15:06:14;13.90;99.90
4187;DHT22;2107;52.306;10.484;2023-05-07T15:08:41;14.00;99.90
4187;DHT22;2107;52.306;10.484;2023-05-07T15:11:08;13.90;99.90
4187;DHT22;2107;52.306;10.484;2023-05-07T15:13:36;13.00;99.90
4187;DHT22;2107;52.306;10.484;2023-05-07T15:16:03;12.80;99.90
4187;DHT22;2107;52.306;10.484;2023-05-07T15:18:30;12.70;99.90
4187;DHT22;2107;52.306;10.484;2023-05-07T15:20:57;13.50;99.90
4187;DHT22;2107;52.306;10.484;2023-05-07T15:23:24;14.00;99.90
4187;DHT22;2107;52.306;10.484;2023-05-07T15:25:51;14.10;99.90
4187;DHT22;2107;52.306;10.484;2023-05-07T15:28:18;13.70;99.90
4187;DHT22;2107;52.306;10.484;2023-05-07T15:30:47;14.10;99.90
4187;DHT22;2107;52.306;10.484;2023-05-07T15:33:14;13.80;99.90
4187;DHT22;2107;52.306;10.484;2023-05-07T15:35:41;14.00;99.90
4187;DHT22;2107;52.306;10.484;2023-05-07T15:38:07;15.80;99.90
4187;DHT22;2107;52.306;10.484;2023-05-07T15:40:34;14.90;99.90
4187;DHT22;2107;52.306;10.484;2023-05-07T15:43:03;14.00;99.90
4187;DHT22;2107;52.306;10.484;2023-05-07T15:45:30;15.70;99.90
4187;DHT22;2107;52.306;10.484;2023-05-07T15:47:58;16.30;99.90
4187;DHT22;2107;52.306;10.484;2023-05-07T15:50:25;16.80;99.90
4187;DHT22;2107;52.306;10.484;2023-05-07T15:52:54;16.10;99.90
4187;DHT22;2107;52.306;10.484;2023-05-07T15:55:21;15.20;99.90
4187;DHT22;2107;52.306;10.484;2023-05-07T15:57:47;14.30;99.90